createdAt,value
2018-08-07T00:00:29.126Z,23.20
2018-08-07T00:02:56.735Z,23.10
2018-08-07T00:05:29.690Z,23.10
2018-08-07T00:07:57.342Z,23.00
2018-08-07T00:10:26.153Z,22.80
2018-08-07T00:12:53.907Z,22.80
2018-08-07T00:15:22.484Z,22.70
2018-08-07T00:17:50.174Z,22.60
2018-08-07T00:20:17.998Z,22.50
2018-08-07T00:22:46.058Z,22.40
2018-08-07T00:25:13.834Z,22.40
2018-08-07T00:27:41.760Z,22.30
2018-08-07T00:30:10.195Z,22.30
2018-08-07T00:32:43.761Z,22.20
2018-08-07T00:35:12.349Z,22.10
2018-08-07T00:37:39.970Z,22.10
2018-08-07T00:40:08.689Z,22.10
2018-08-07T00:42:36.324Z,22.00
2018-08-07T00:45:04.230Z,22.00
2018-08-07T00:47:32.396Z,22.00
2018-08-07T00:50:00.009Z,22.00
2018-08-07T00:52:27.717Z,22.00
2018-08-07T00:54:55.432Z,22.00
2018-08-07T00:57:23.058Z,21.90
2018-08-07T00:59:50.666Z,21.90
2018-08-07T01:02:18.270Z,21.90
2018-08-07T01:04:47.109Z,21.90
2018-08-07T01:07:14.736Z,21.80
2018-08-07T01:09:42.373Z,21.80
2018-08-07T01:12:10.082Z,21.80
2018-08-07T01:14:37.707Z,21.80
2018-08-07T01:17:05.389Z,21.70
2018-08-07T01:19:33.030Z,21.70
2018-08-07T01:22:00.657Z,21.60
2018-08-07T01:24:28.323Z,21.60
2018-08-07T01:26:56.022Z,21.50
2018-08-07T01:29:23.581Z,21.50
2018-08-07T01:31:51.239Z,21.50
2018-08-07T01:34:18.934Z,21.50
2018-08-07T01:36:46.612Z,21.40
2018-08-07T01:39:14.167Z,21.40
2018-08-07T01:41:41.855Z,21.40
2018-08-07T01:44:09.441Z,21.40
2018-08-07T01:46:37.064Z,21.40
2018-08-07T01:51:56.168Z,21.20
2018-08-07T01:54:23.837Z,21.20
2018-08-07T01:56:51.467Z,21.00
2018-08-07T01:59:19.049Z,21.00
2018-08-07T02:01:46.681Z,20.90
2018-08-07T02:04:14.323Z,20.90
2018-08-07T02:06:41.948Z,20.80
2018-08-07T02:09:09.601Z,20.80
2018-08-07T02:11:37.232Z,20.80
2018-08-07T02:14:04.847Z,20.90
2018-08-07T02:16:32.461Z,20.80
2018-08-07T02:19:00.090Z,20.70
2018-08-07T02:21:27.760Z,20.80
2018-08-07T02:23:55.439Z,20.70
2018-08-07T02:26:23.127Z,20.70
2018-08-07T02:28:50.811Z,20.60
2018-08-07T02:31:18.456Z,20.60
2018-08-07T02:33:46.097Z,20.60
2018-08-07T02:36:13.755Z,20.60
2018-08-07T02:38:41.405Z,20.60
2018-08-07T02:41:09.051Z,20.50
2018-08-07T02:43:36.710Z,20.50
2018-08-07T02:46:04.323Z,20.50
2018-08-07T02:48:32.025Z,20.50
2018-08-07T02:50:59.644Z,20.40
2018-08-07T02:53:27.306Z,20.30
2018-08-07T02:55:54.880Z,20.30
2018-08-07T02:58:22.543Z,20.30
2018-08-07T03:00:50.129Z,20.20
2018-08-07T03:06:03.587Z,20.20
2018-08-07T03:08:31.158Z,20.10
2018-08-07T03:10:58.840Z,20.20
2018-08-07T03:13:26.458Z,20.20
2018-08-07T03:15:54.131Z,20.10
2018-08-07T03:18:21.782Z,20.10
2018-08-07T03:20:55.222Z,20.00
2018-08-07T03:23:22.908Z,20.00
2018-08-07T03:25:50.485Z,20.00
2018-08-07T03:28:18.101Z,19.90
2018-08-07T03:30:45.733Z,20.00
2018-08-07T03:33:13.330Z,19.90
2018-08-07T03:35:49.200Z,19.90
2018-08-07T03:38:16.890Z,19.90
2018-08-07T03:40:44.537Z,19.80
2018-08-07T03:43:12.151Z,19.80
2018-08-07T03:45:39.811Z,19.80
2018-08-07T03:48:07.402Z,19.70
2018-08-07T03:50:35.079Z,19.70
2018-08-07T03:53:02.777Z,19.80
2018-08-07T03:55:30.379Z,19.70
2018-08-07T03:57:57.979Z,19.70
2018-08-07T04:00:25.554Z,19.80
2018-08-07T04:02:53.293Z,19.70
2018-08-07T04:05:20.870Z,19.70
2018-08-07T04:07:48.678Z,19.70
2018-08-07T04:10:17.054Z,19.70
2018-08-07T04:12:44.691Z,19.70
2018-08-07T04:15:18.209Z,19.80
2018-08-07T04:17:45.954Z,19.70
2018-08-07T04:20:14.484Z,19.70
2018-08-07T04:22:42.153Z,19.70
2018-08-07T04:25:09.845Z,19.70
2018-08-07T04:30:29.248Z,19.50
2018-08-07T04:32:56.981Z,19.60
2018-08-07T04:35:24.618Z,19.70
2018-08-07T04:37:52.259Z,19.70
2018-08-07T04:40:22.011Z,19.80
2018-08-07T04:42:49.623Z,19.90
2018-08-07T04:45:29.169Z,19.90
2018-08-07T04:48:02.443Z,19.90
2018-08-07T04:50:30.148Z,19.90
2018-08-07T04:52:57.837Z,20.00
2018-08-07T04:55:25.508Z,20.00
2018-08-07T04:57:53.161Z,20.00
2018-08-07T05:00:20.863Z,20.10
2018-08-07T05:02:48.912Z,20.10
2018-08-07T05:05:16.872Z,20.20
2018-08-07T05:07:45.426Z,20.30
2018-08-07T05:10:16.652Z,20.50
2018-08-07T05:12:44.902Z,20.50
2018-08-07T05:15:12.763Z,20.60
2018-08-07T05:17:41.549Z,20.70
2018-08-07T05:20:09.177Z,20.80
2018-08-07T05:22:37.639Z,21.00
2018-08-07T05:25:05.540Z,21.10
2018-08-07T05:27:33.286Z,21.20
2018-08-07T05:30:12.388Z,21.30
2018-08-07T05:32:55.187Z,21.50
2018-08-07T05:38:14.875Z,21.70
2018-08-07T05:40:42.924Z,21.90
2018-08-07T05:43:10.746Z,22.00
2018-08-07T05:45:38.748Z,22.10
2018-08-07T05:48:06.882Z,22.30
2018-08-07T05:50:38.575Z,22.40
2018-08-07T06:33:41.852Z,25.20
2018-08-07T06:36:09.757Z,25.40
2018-08-07T06:38:40.852Z,25.70
2018-08-07T06:41:23.640Z,25.90
2018-08-07T06:43:51.449Z,26.10
2018-08-07T06:46:20.263Z,26.20
2018-08-07T06:57:45.085Z,26.70
2018-08-07T07:00:15.475Z,27.40
2018-08-07T07:02:43.200Z,27.70
2018-08-07T07:05:11.351Z,27.80
2018-08-07T07:07:38.961Z,27.90
2018-08-07T07:10:07.014Z,28.20
2018-08-07T07:12:34.636Z,28.50
2018-08-07T07:15:15.013Z,28.70
2018-08-07T07:17:43.804Z,28.80
2018-08-07T07:20:12.802Z,29.00
2018-08-07T07:22:40.975Z,29.20
2018-08-07T07:25:09.529Z,29.30
2018-08-07T07:27:37.205Z,29.30
2018-08-07T07:30:20.913Z,29.40
2018-08-07T07:32:51.230Z,29.40
2018-08-07T07:38:07.309Z,29.60
2018-08-07T07:40:34.943Z,29.70
2018-08-07T07:43:02.746Z,29.80
2018-08-07T07:45:30.963Z,29.90
2018-08-07T07:47:59.515Z,30.10
2018-08-07T07:50:27.256Z,30.20
2018-08-07T07:52:54.978Z,30.40
2018-08-07T07:55:22.600Z,30.60
2018-08-07T07:57:50.312Z,30.70
2018-08-07T08:00:20.042Z,30.80
2018-08-07T08:02:48.325Z,31.00
2018-08-07T08:05:16.220Z,31.20
2018-08-07T08:07:44.237Z,31.40
2018-08-07T08:10:11.895Z,31.50
2018-08-07T08:12:40.072Z,31.80
2018-08-07T08:15:08.996Z,32.10
2018-08-07T08:17:36.660Z,32.20
2018-08-07T08:20:05.376Z,32.50
2018-08-07T08:22:32.911Z,32.60
2018-08-07T08:25:06.154Z,32.80
2018-08-07T08:27:33.745Z,33.00
2018-08-07T08:32:51.662Z,33.20
2018-08-07T08:35:27.818Z,33.20
2018-08-07T08:37:55.328Z,33.10
2018-08-07T08:40:23.402Z,33.10
2018-08-07T08:42:50.979Z,32.90
2018-08-07T08:45:19.871Z,32.90
2018-08-07T08:47:48.915Z,32.90
2018-08-07T08:50:17.625Z,33.10
2018-08-07T08:52:45.984Z,33.30
2018-08-07T08:55:13.819Z,33.40
2018-08-07T08:57:42.924Z,33.50
2018-08-07T09:00:12.589Z,33.60
2018-08-07T09:02:40.354Z,33.60
2018-08-07T09:05:15.831Z,33.70
2018-08-07T09:07:44.475Z,33.90
2018-08-07T09:10:15.282Z,33.70
2018-08-07T09:12:43.743Z,33.90
2018-08-07T09:15:11.902Z,34.00
2018-08-07T09:17:40.376Z,34.20
2018-08-07T09:20:09.728Z,34.40
2018-08-07T09:22:54.544Z,34.40
2018-08-07T09:25:22.909Z,34.30
2018-08-07T09:27:50.722Z,34.30
2018-08-07T09:30:20.140Z,34.00
2018-08-07T09:32:48.449Z,34.30
2018-08-07T09:35:16.757Z,34.30
2018-08-07T09:37:45.629Z,34.40
2018-08-07T09:40:14.094Z,34.50
2018-08-07T09:42:42.626Z,34.70
2018-08-07T09:45:12.881Z,34.90
2018-08-07T09:47:40.685Z,35.00
2018-08-07T09:50:08.616Z,35.20
2018-08-07T09:52:36.161Z,35.30
2018-08-07T09:55:03.738Z,35.50
2018-08-07T09:57:31.360Z,35.70
2018-08-07T09:59:59.043Z,35.80
2018-08-07T10:02:26.749Z,35.80
2018-08-07T10:04:54.491Z,36.00
2018-08-07T10:07:22.201Z,35.90
2018-08-07T10:09:50.009Z,35.90
2018-08-07T10:12:17.576Z,35.80
2018-08-07T10:14:46.459Z,35.60
2018-08-07T10:17:14.166Z,35.80
2018-08-07T10:19:41.987Z,35.90
2018-08-07T10:22:09.692Z,35.90
2018-08-07T10:24:37.441Z,35.90
2018-08-07T10:27:05.183Z,36.00
2018-08-07T10:29:32.789Z,36.10
2018-08-07T10:32:00.380Z,36.40
2018-08-07T10:34:28.146Z,36.60
2018-08-07T10:36:57.939Z,36.70
2018-08-07T10:39:25.712Z,36.70
2018-08-07T10:41:53.377Z,36.70
2018-08-07T10:44:21.275Z,36.50
2018-08-07T10:46:50.613Z,36.40
2018-08-07T10:49:24.088Z,36.70
2018-08-07T10:51:51.717Z,36.90
2018-08-07T10:54:19.349Z,36.90
2018-08-07T10:56:47.013Z,36.50
2018-08-07T10:59:14.730Z,35.80
2018-08-07T11:01:42.577Z,35.40
2018-08-07T11:04:10.191Z,35.20
2018-08-07T11:06:37.838Z,35.60
2018-08-07T11:09:07.571Z,35.70
2018-08-07T11:11:42.291Z,35.90
2018-08-07T11:14:10.371Z,36.00
2018-08-07T11:16:37.974Z,36.30
2018-08-07T11:19:05.654Z,36.50
2018-08-07T11:21:33.341Z,36.70
2018-08-07T11:24:03.020Z,36.60
2018-08-07T11:26:30.826Z,36.70
2018-08-07T11:28:58.467Z,36.80
2018-08-07T11:31:26.096Z,36.90
2018-08-07T11:33:53.762Z,36.90
2018-08-07T11:36:21.386Z,36.60
2018-08-07T11:38:49.075Z,36.50
2018-08-07T11:41:16.739Z,36.60
2018-08-07T11:43:44.298Z,36.80
2018-08-07T11:46:11.908Z,36.70
2018-08-07T11:48:39.733Z,36.50
2018-08-07T11:51:07.626Z,36.50
2018-08-07T12:01:55.898Z,35.60
2018-08-07T12:04:23.642Z,35.60
2018-08-07T12:06:51.302Z,35.80
2018-08-07T12:09:31.741Z,35.80
2018-08-07T12:12:07.014Z,35.70
2018-08-07T12:14:34.693Z,35.60
2018-08-07T12:17:02.526Z,35.60
2018-08-07T12:19:30.175Z,35.80
2018-08-07T12:21:57.817Z,35.60
2018-08-07T12:24:25.995Z,35.80
2018-08-07T12:26:53.794Z,35.90
2018-08-07T12:29:21.391Z,36.20
2018-08-07T12:31:49.159Z,36.10
2018-08-07T12:34:17.121Z,36.20
2018-08-07T12:36:44.805Z,36.20
2018-08-07T12:39:12.479Z,36.40
2018-08-07T12:41:40.543Z,36.30
2018-08-07T12:44:08.172Z,36.50
2018-08-07T12:46:35.877Z,36.70
2018-08-07T12:49:03.459Z,36.80
2018-08-07T12:51:31.072Z,36.80
2018-08-07T12:53:58.721Z,36.70
2018-08-07T12:56:26.341Z,36.60
2018-08-07T12:58:53.886Z,36.70
2018-08-07T13:01:21.490Z,37.00
2018-08-07T13:03:49.084Z,36.80
2018-08-07T13:06:16.626Z,37.00
2018-08-07T13:08:44.260Z,36.70
2018-08-07T13:11:11.806Z,36.70
2018-08-07T13:13:39.515Z,36.60
2018-08-07T13:16:07.197Z,36.70
2018-08-07T13:18:34.865Z,36.40
2018-08-07T13:21:02.762Z,36.20
2018-08-07T13:23:30.651Z,35.80
2018-08-07T13:26:03.706Z,35.40
2018-08-07T13:28:32.291Z,35.10
2018-08-07T13:31:00.053Z,34.80
2018-08-07T13:33:27.823Z,34.50
2018-08-07T13:35:55.696Z,34.40
2018-08-07T13:38:23.442Z,34.40
2018-08-07T13:40:51.194Z,34.30
2018-08-07T13:43:29.518Z,34.20
2018-08-07T13:46:00.234Z,34.20
2018-08-07T13:48:27.981Z,34.30
2018-08-07T13:50:55.681Z,34.40
2018-08-07T13:53:23.629Z,34.80
2018-08-07T13:55:53.674Z,35.10
2018-08-07T13:58:35.622Z,35.40
2018-08-07T14:01:03.466Z,35.50
2018-08-07T14:03:31.230Z,35.60
2018-08-07T14:06:11.759Z,35.60
2018-08-07T14:08:39.714Z,35.50
2018-08-07T14:11:07.541Z,35.40
2018-08-07T14:13:37.165Z,35.20
2018-08-07T14:16:05.291Z,35.20
2018-08-07T14:18:33.129Z,35.10
2018-08-07T14:21:03.852Z,34.90
2018-08-07T14:23:32.003Z,34.90
2018-08-07T14:26:01.090Z,34.80
2018-08-07T14:28:30.502Z,34.50
2018-08-07T14:30:58.517Z,34.40
2018-08-07T14:33:27.517Z,34.30
2018-08-07T14:35:55.483Z,34.30
2018-08-07T14:38:26.669Z,34.00
2018-08-07T14:41:04.989Z,33.80
2018-08-07T14:43:33.139Z,33.80
2018-08-07T14:46:01.295Z,33.80
2018-08-07T14:48:42.036Z,33.90
2018-08-07T14:51:11.560Z,34.00
2018-08-07T14:54:06.746Z,34.10
2018-08-07T14:56:34.676Z,34.00
2018-08-07T14:59:02.426Z,33.80
2018-08-07T15:01:30.521Z,32.80
2018-08-07T15:03:58.706Z,32.30
2018-08-07T15:06:26.648Z,32.10
2018-08-07T15:09:00.816Z,31.80
2018-08-07T15:11:28.625Z,31.30
2018-08-07T15:14:01.747Z,31.10
2018-08-07T15:16:30.172Z,31.10
2018-08-07T15:18:58.052Z,31.00
2018-08-07T15:21:30.428Z,31.20
2018-08-07T15:23:58.247Z,31.20
2018-08-07T15:26:25.984Z,31.20
2018-08-07T15:28:53.705Z,31.20
2018-08-07T15:31:21.377Z,31.20
2018-08-07T15:33:49.428Z,31.20
2018-08-07T15:36:17.116Z,31.20
2018-08-07T15:38:44.858Z,31.20
2018-08-07T15:41:13.457Z,31.20
2018-08-07T15:43:41.185Z,31.30
2018-08-07T15:46:08.914Z,31.30
2018-08-07T15:48:36.737Z,31.30
2018-08-07T15:51:04.545Z,31.40
2018-08-07T15:53:32.371Z,31.60
2018-08-07T15:56:00.078Z,31.50
2018-08-07T15:58:29.515Z,31.70
2018-08-07T16:00:57.172Z,31.60
2018-08-07T16:03:24.940Z,31.70
2018-08-07T16:05:52.598Z,31.70
2018-08-07T16:08:20.293Z,31.70
2018-08-07T16:10:59.279Z,31.70
2018-08-07T16:13:26.867Z,31.70
2018-08-07T16:15:54.521Z,31.70
2018-08-07T16:18:23.407Z,31.80
2018-08-07T16:20:51.035Z,31.90
2018-08-07T16:23:19.420Z,32.10
2018-08-07T16:25:52.769Z,32.10
2018-08-07T16:28:20.768Z,32.20
2018-08-07T16:30:48.795Z,32.40
2018-08-07T16:33:16.647Z,32.30
2018-08-07T16:35:44.541Z,32.30
2018-08-07T16:38:13.196Z,32.30
2018-08-07T16:40:41.306Z,32.40
2018-08-07T16:43:09.219Z,32.50
2018-08-07T16:45:37.127Z,32.60
2018-08-07T16:48:05.444Z,32.70
2018-08-07T16:50:34.195Z,32.70
2018-08-07T16:53:02.588Z,32.60
2018-08-07T16:55:30.709Z,32.50
2018-08-07T16:57:58.988Z,32.40
2018-08-07T17:00:27.444Z,32.40
2018-08-07T17:02:56.091Z,32.30
2018-08-07T17:05:23.776Z,32.20
2018-08-07T17:07:52.241Z,32.00
2018-08-07T18:14:31.570Z,31.90
2018-08-07T18:17:01.264Z,30.60
2018-08-07T18:19:29.197Z,30.70
2018-08-07T18:21:57.147Z,30.70
2018-08-07T18:24:31.495Z,30.80
2018-08-07T18:27:00.257Z,30.80
2018-08-07T18:29:27.907Z,30.90
2018-08-07T18:31:56.040Z,30.90
2018-08-07T18:34:23.889Z,31.00
2018-08-07T18:36:51.732Z,31.00
2018-08-07T18:39:19.602Z,31.00
2018-08-07T18:41:48.169Z,30.90
2018-08-07T18:44:16.062Z,30.90
2018-08-07T18:46:47.273Z,30.80
2018-08-07T18:49:14.923Z,30.80
2018-08-07T18:51:42.615Z,30.70
2018-08-07T18:54:12.349Z,30.60
2018-08-07T18:56:40.181Z,30.60
2018-08-07T18:59:07.866Z,30.50
2018-08-07T19:01:35.935Z,30.50
2018-08-07T19:06:51.225Z,30.50
2018-08-07T19:09:19.068Z,30.50
2018-08-07T19:11:46.992Z,30.50
2018-08-07T19:14:14.993Z,30.50
2018-08-07T19:16:45.066Z,30.40
2018-08-07T19:19:13.885Z,30.40
2018-08-07T19:21:41.916Z,30.20
2018-08-07T19:24:10.700Z,30.10
2018-08-07T19:26:42.003Z,30.00
2018-08-07T19:29:11.691Z,29.90
2018-08-07T19:31:48.098Z,29.70
2018-08-07T19:34:21.919Z,29.50
2018-08-07T19:36:55.089Z,29.40
2018-08-07T19:39:27.177Z,29.10
2018-08-07T19:42:06.173Z,29.10
2018-08-07T19:44:40.108Z,29.00
2018-08-07T19:47:08.739Z,28.90
2018-08-07T19:49:37.344Z,28.70
2018-08-07T19:52:05.260Z,28.60
2018-08-07T19:54:33.505Z,28.50
2018-08-07T19:57:05.103Z,28.50
2018-08-07T19:59:34.642Z,28.40
2018-08-07T20:02:04.557Z,28.30
2018-08-07T20:04:33.501Z,28.20
2018-08-07T20:07:01.233Z,28.20
2018-08-07T20:09:28.997Z,28.20
2018-08-07T20:12:09.442Z,28.20
2018-08-07T20:14:43.744Z,28.30
2018-08-07T20:17:13.116Z,28.40
2018-08-07T20:19:41.465Z,28.40
2018-08-07T20:22:15.255Z,28.40
2018-08-07T20:24:46.466Z,28.40
2018-08-07T20:27:20.709Z,28.50
2018-08-07T20:29:48.367Z,28.40
2018-08-07T20:32:17.208Z,28.40
2018-08-07T20:34:45.025Z,28.30
2018-08-07T20:37:17.471Z,28.20
2018-08-07T20:39:46.324Z,28.20
2018-08-07T20:42:14.114Z,28.20
2018-08-07T20:44:42.984Z,28.30
2018-08-07T20:47:14.199Z,28.20
2018-08-07T20:49:42.087Z,28.30
2018-08-07T20:54:58.741Z,28.30
2018-08-07T20:57:26.581Z,28.30
2018-08-07T20:59:54.481Z,28.30
2018-08-07T21:02:22.073Z,28.30
2018-08-07T21:04:50.556Z,28.30
2018-08-07T21:07:19.944Z,28.20
2018-08-07T21:10:01.098Z,28.20
2018-08-07T21:12:30.352Z,28.20
2018-08-07T21:14:58.385Z,28.10
2018-08-07T21:17:27.232Z,28.10
2018-08-07T21:19:54.851Z,28.00
2018-08-07T21:22:22.629Z,28.00
2018-08-07T21:24:50.310Z,27.90
2018-08-07T21:27:17.982Z,27.90
2018-08-07T21:29:45.853Z,27.90
2018-08-07T21:32:13.544Z,27.80
2018-08-07T21:34:41.157Z,27.80
2018-08-07T21:42:51.790Z,27.70
2018-08-07T21:45:19.398Z,27.70
2018-08-07T21:47:47.112Z,27.60
2018-08-07T21:50:15.797Z,27.60
2018-08-07T21:52:43.389Z,27.60
2018-08-07T21:55:12.443Z,27.60
2018-08-07T21:57:40.371Z,27.60
2018-08-07T22:00:16.692Z,27.50
2018-08-07T22:02:44.285Z,27.30
2018-08-07T22:05:11.983Z,27.20
2018-08-07T22:07:39.765Z,27.10
2018-08-07T22:10:12.293Z,27.00
2018-08-07T22:12:39.928Z,27.00
2018-08-07T22:15:07.594Z,26.90
2018-08-07T22:17:35.219Z,26.80
2018-08-07T22:20:02.845Z,26.70
2018-08-07T22:22:30.450Z,26.70
2018-08-07T22:24:58.082Z,26.70
2018-08-07T22:27:25.659Z,26.70
2018-08-07T22:29:53.270Z,26.70
2018-08-07T22:32:28.408Z,26.70
2018-08-07T22:34:56.028Z,26.80
2018-08-07T22:37:23.588Z,26.90
2018-08-07T22:39:51.172Z,27.00
2018-08-07T22:42:18.806Z,27.00
2018-08-07T22:44:46.359Z,27.10
2018-08-07T22:47:13.973Z,27.20
2018-08-07T22:49:41.571Z,27.30
2018-08-07T22:52:09.161Z,27.30
2018-08-07T22:57:25.202Z,27.40
2018-08-07T22:59:52.889Z,27.40
2018-08-07T23:02:20.490Z,27.30
2018-08-07T23:04:48.096Z,27.40
2018-08-07T23:07:15.721Z,27.30
2018-08-07T23:09:43.406Z,27.30
2018-08-07T23:12:11.021Z,27.30
2018-08-07T23:14:38.606Z,27.30
2018-08-07T23:17:06.230Z,27.30
2018-08-07T23:19:34.135Z,27.20
2018-08-07T23:22:01.790Z,27.20
2018-08-07T23:24:29.440Z,27.20
2018-08-07T23:26:57.082Z,27.10
2018-08-07T23:29:24.737Z,26.90
2018-08-07T23:31:52.378Z,26.80
2018-08-07T23:34:19.986Z,26.80
2018-08-07T23:36:47.641Z,26.80
2018-08-07T23:39:15.306Z,26.70
2018-08-07T23:41:42.944Z,26.60
2018-08-07T23:44:10.565Z,26.50
2018-08-07T23:46:38.257Z,26.50
2018-08-07T23:49:05.884Z,26.40
2018-08-07T23:51:33.466Z,26.30
2018-08-07T23:54:01.191Z,26.20
2018-08-07T23:56:28.762Z,26.10
2018-08-07T23:58:56.390Z,26.10
